sensor_id;sensor_type;location;lat;lon;timestamp;pressure;altitude;pressure_sealevel;temperature;humidity
66945;BME280;53853;51.982;5.928;2023-05-15T00:02:39;101428.00;;;13.69;75.72
66945;BME280;53853;51.982;5.928;2023-05-15T00:05:10;101425.09;;;13.62;75.79
66945;BME280;53853;51.982;5.928;2023-05-15T00:07:41;101422.72;;;13.59;75.51
66945;BME280;53853;51.982;5.928;2023-05-15T00:10:11;101416.00;;;13.55;75.40
66945;BME280;53853;51.982;5.928;2023-05-15T00:12:41;101412.09;;;13.49;75.24
66945;BME280;53853;51.982;5.928;2023-05-15T00:15:13;101411.56;;;13.46;75.28
66945;BME280;53853;51.982;5.928;2023-05-15T00:17:43;101411.22;;;13.40;74.88
66945;BME280;53853;51.982;5.928;2023-05-15T00:20:13;101407.81;;;13.38;74.94
66945;BME280;53853;51.982;5.928;2023-05-15T00:22:42;101403.47;;;13.37;74.84
66945;BME280;53853;51.982;5.928;2023-05-15T00:25:13;101395.44;;;13.37;74.75
66945;BME280;53853;51.982;5.928;2023-05-15T00:27:45;101398.28;;;13.36;74.39
66945;BME280;53853;51.982;5.928;2023-05-15T00:30:17;101395.91;;;13.33;74.40
66945;BME280;53853;51.982;5.928;2023-05-15T00:32:47;101391.50;;;13.32;74.17
66945;BME280;53853;51.982;5.928;2023-05-15T00:35:18;101384.50;;;13.31;73.80
66945;BME280;53853;51.982;5.928;2023-05-15T00:37:47;101384.50;;;13.31;72.96
66945;BME280;53853;51.982;5.928;2023-05-15T00:40:20;101383.09;;;13.27;72.66
66945;BME280;53853;51.982;5.928;2023-05-15T00:42:51;101377.06;;;13.25;72.68
66945;BME280;53853;51.982;5.928;2023-05-15T00:45:24;101379.03;;;13.22;72.64
66945;BME280;53853;51.982;5.928;2023-05-15T00:47:55;101374.00;;;13.19;72.66
66945;BME280;53853;51.982;5.928;2023-05-15T00:50:26;101375.16;;;13.17;72.43
66945;BME280;53853;51.982;5.928;2023-05-15T00:52:56;101367.13;;;13.17;72.21
66945;BME280;53853;51.982;5.928;2023-05-15T00:55:28;101362.78;;;13.16;71.94
66945;BME280;53853;51.982;5.928;2023-05-15T00:57:59;101362.91;;;13.14;71.81
66945;BME280;53853;51.982;5.928;2023-05-15T01:00:33;101354.88;;;13.14;71.96
66945;BME280;53853;51.982;5.928;2023-05-15T01:03:04;101361.41;;;13.12;71.35
66945;BME280;53853;51.982;5.928;2023-05-15T01:05:35;101355.34;;;13.10;71.39
66945;BME280;53853;51.982;5.928;2023-05-15T01:08:15;101352.81;;;13.08;71.22
66945;BME280;53853;51.982;5.928;2023-05-15T01:10:47;101352.00;;;13.08;71.25
66945;BME280;53853;51.982;5.928;2023-05-15T01:13:20;101361.41;;;13.12;71.08
66945;BME280;53853;51.982;5.928;2023-05-15T01:15:54;101370.44;;;13.11;70.73
66945;BME280;53853;51.982;5.928;2023-05-15T01:18:24;101362.69;;;13.08;70.48
66945;BME280;53853;51.982;5.928;2023-05-15T01:21:19;101372.03;;;13.03;70.94
66945;BME280;53853;51.982;5.928;2023-05-15T01:24:06;101360.78;;;13.00;71.45
66945;BME280;53853;51.982;5.928;2023-05-15T01:27:03;101355.88;;;12.95;72.00
66945;BME280;53853;51.982;5.928;2023-05-15T01:29:36;101358.19;;;12.90;72.28
66945;BME280;53853;51.982;5.928;2023-05-15T01:32:14;101363.16;;;12.85;72.49
66945;BME280;53853;51.982;5.928;2023-05-15T01:34:52;101356.13;;;12.84;72.58
66945;BME280;53853;51.982;5.928;2023-05-15T01:37:28;101356.28;;;12.82;72.66
66945;BME280;53853;51.982;5.928;2023-05-15T01:40:02;101358.13;;;12.82;72.99
66945;BME280;53853;51.982;5.928;2023-05-15T01:42:43;101356.56;;;12.79;73.56
66945;BME280;53853;51.982;5.928;2023-05-15T01:45:17;101349.16;;;12.73;74.40
66945;BME280;53853;51.982;5.928;2023-05-15T01:47:49;101348.78;;;12.68;74.75
66945;BME280;53853;51.982;5.928;2023-05-15T01:50:21;101349.91;;;12.65;74.87
66945;BME280;53853;51.982;5.928;2023-05-15T01:52:55;101350.91;;;12.64;75.00
66945;BME280;53853;51.982;5.928;2023-05-15T01:55:27;101353.44;;;12.66;75.54
66945;BME280;53853;51.982;5.928;2023-05-15T01:58:01;101350.78;;;12.66;75.62
66945;BME280;53853;51.982;5.928;2023-05-15T02:00:32;101343.72;;;12.65;76.10
66945;BME280;53853;51.982;5.928;2023-05-15T02:03:04;101348.53;;;12.61;76.16
66945;BME280;53853;51.982;5.928;2023-05-15T02:05:34;101347.00;;;12.59;76.48
66945;BME280;53853;51.982;5.928;2023-05-15T02:08:05;101341.81;;;12.57;77.05
66945;BME280;53853;51.982;5.928;2023-05-15T02:10:35;101348.16;;;12.56;77.17
66945;BME280;53853;51.982;5.928;2023-05-15T02:13:08;101343.66;;;12.57;77.46
66945;BME280;53853;51.982;5.928;2023-05-15T02:15:38;101344.78;;;12.54;77.51
66945;BME280;53853;51.982;5.928;2023-05-15T02:18:09;101349.16;;;12.55;77.34
66945;BME280;53853;51.982;5.928;2023-05-15T02:20:39;101338.44;;;12.55;77.44
66945;BME280;53853;51.982;5.928;2023-05-15T02:23:09;101330.88;;;12.50;77.70
66945;BME280;53853;51.982;5.928;2023-05-15T02:25:45;101335.94;;;12.54;77.52
66945;BME280;53853;51.982;5.928;2023-05-15T02:28:23;101333.94;;;12.56;77.34
66945;BME280;53853;51.982;5.928;2023-05-15T02:31:03;101335.78;;;12.55;77.33
66945;BME280;53853;51.982;5.928;2023-05-15T02:33:40;101327.75;;;12.55;77.00
66945;BME280;53853;51.982;5.928;2023-05-15T02:36:16;101331.09;;;12.57;76.75
66945;BME280;53853;51.982;5.928;2023-05-15T02:38:52;101334.66;;;12.58;76.52
66945;BME280;53853;51.982;5.928;2023-05-15T02:41:22;101330.13;;;12.58;76.49
66945;BME280;53853;51.982;5.928;2023-05-15T02:43:56;101328.13;;;12.60;76.47
66945;BME280;53853;51.982;5.928;2023-05-15T02:46:26;101322.78;;;12.60;76.29
66945;BME280;53853;51.982;5.928;2023-05-15T02:48:57;101322.78;;;12.60;76.35
66945;BME280;53853;51.982;5.928;2023-05-15T02:51:27;101326.63;;;12.58;76.41
66945;BME280;53853;51.982;5.928;2023-05-15T02:53:59;101324.78;;;12.58;76.48
66945;BME280;53853;51.982;5.928;2023-05-15T02:56:29;101320.72;;;12.54;77.16
66945;BME280;53853;51.982;5.928;2023-05-15T02:59:02;101320.72;;;12.54;77.11
66945;BME280;53853;51.982;5.928;2023-05-15T03:01:32;101333.78;;;12.57;76.88
66945;BME280;53853;51.982;5.928;2023-05-15T03:04:02;101333.63;;;12.59;76.93
66945;BME280;53853;51.982;5.928;2023-05-15T03:06:32;101330.81;;;12.60;76.94
66945;BME280;53853;51.982;5.928;2023-05-15T03:09:02;101333.78;;;12.57;77.13
66945;BME280;53853;51.982;5.928;2023-05-15T03:11:32;101336.16;;;12.60;76.86
66945;BME280;53853;51.982;5.928;2023-05-15T03:14:04;101342.34;;;12.61;76.90
66945;BME280;53853;51.982;5.928;2023-05-15T03:16:34;101332.81;;;12.58;77.06
66945;BME280;53853;51.982;5.928;2023-05-15T03:19:04;101340.81;;;12.58;77.14
66945;BME280;53853;51.982;5.928;2023-05-15T03:21:34;101344.19;;;12.60;76.71
66945;BME280;53853;51.982;5.928;2023-05-15T03:24:05;101345.34;;;12.58;76.83
66945;BME280;53853;51.982;5.928;2023-05-15T03:26:34;101340.13;;;12.56;76.67
66945;BME280;53853;51.982;5.928;2023-05-15T03:29:08;101341.41;;;12.52;76.89
66945;BME280;53853;51.982;5.928;2023-05-15T03:31:38;101344.38;;;12.49;76.95
66945;BME280;53853;51.982;5.928;2023-05-15T03:34:08;101347.38;;;12.46;77.24
66945;BME280;53853;51.982;5.928;2023-05-15T03:36:38;101343.84;;;12.45;77.23
66945;BME280;53853;51.982;5.928;2023-05-15T03:39:08;101345.81;;;12.43;77.47
66945;BME280;53853;51.982;5.928;2023-05-15T03:41:38;101337.66;;;12.45;77.70
66945;BME280;53853;51.982;5.928;2023-05-15T03:44:10;101336.22;;;12.50;77.60
66945;BME280;53853;51.982;5.928;2023-05-15T03:46:40;101340.75;;;12.50;77.88
66945;BME280;53853;51.982;5.928;2023-05-15T03:49:11;101340.75;;;12.50;78.44
66945;BME280;53853;51.982;5.928;2023-05-15T03:51:41;101335.25;;;12.52;78.60
66945;BME280;53853;51.982;5.928;2023-05-15T03:54:11;101334.78;;;12.56;78.55
66945;BME280;53853;51.982;5.928;2023-05-15T03:56:40;101327.91;;;12.54;78.70
66945;BME280;53853;51.982;5.928;2023-05-15T03:59:13;101337.06;;;12.51;78.98
66945;BME280;53853;51.982;5.928;2023-05-15T04:01:43;101327.66;;;12.47;79.26
66945;BME280;53853;51.982;5.928;2023-05-15T04:04:13;101335.13;;;12.43;79.31
66945;BME280;53853;51.982;5.928;2023-05-15T04:06:42;101326.97;;;12.45;79.32
66945;BME280;53853;51.982;5.928;2023-05-15T04:09:12;101327.66;;;12.47;79.23
66945;BME280;53853;51.982;5.928;2023-05-15T04:11:42;101324.28;;;12.45;79.50
66945;BME280;53853;51.982;5.928;2023-05-15T04:14:15;101323.31;;;12.46;79.52
66945;BME280;53853;51.982;5.928;2023-05-15T04:16:45;101326.66;;;12.48;79.71
66945;BME280;53853;51.982;5.928;2023-05-15T04:19:14;101319.50;;;12.48;79.89
66945;BME280;53853;51.982;5.928;2023-05-15T04:21:44;101319.06;;;12.53;79.97
66945;BME280;53853;51.982;5.928;2023-05-15T04:24:14;101319.72;;;12.55;79.95
66945;BME280;53853;51.982;5.928;2023-05-15T04:26:44;101322.63;;;12.62;80.06
66945;BME280;53853;51.982;5.928;2023-05-15T04:29:16;101324.03;;;12.66;79.93
66945;BME280;53853;51.982;5.928;2023-05-15T04:31:46;101304.28;;;12.67;79.96
66945;BME280;53853;51.982;5.928;2023-05-15T04:34:16;101315.84;;;12.67;80.22
66945;BME280;53853;51.982;5.928;2023-05-15T04:36:46;101318.06;;;12.72;80.65
66945;BME280;53853;51.982;5.928;2023-05-15T04:39:16;101321.13;;;12.77;80.60
66945;BME280;53853;51.982;5.928;2023-05-15T04:41:46;101320.38;;;12.85;80.18
66945;BME280;53853;51.982;5.928;2023-05-15T04:44:19;101324.25;;;12.91;80.11
66945;BME280;53853;51.982;5.928;2023-05-15T04:46:48;101322.97;;;12.95;79.96
66945;BME280;53853;51.982;5.928;2023-05-15T04:49:18;101342.59;;;13.03;79.83
66945;BME280;53853;51.982;5.928;2023-05-15T04:51:48;101350.56;;;13.13;79.80
66945;BME280;53853;51.982;5.928;2023-05-15T04:54:18;101358.09;;;13.18;79.50
66945;BME280;53853;51.982;5.928;2023-05-15T04:56:48;101356.81;;;13.22;79.35
66945;BME280;53853;51.982;5.928;2023-05-15T04:59:20;101361.84;;;13.25;79.09
66945;BME280;53853;51.982;5.928;2023-05-15T05:01:50;101361.84;;;13.25;78.99
66945;BME280;53853;51.982;5.928;2023-05-15T05:04:20;101367.88;;;13.27;78.99
66945;BME280;53853;51.982;5.928;2023-05-15T05:06:50;101374.56;;;13.23;77.71
66945;BME280;53853;51.982;5.928;2023-05-15T05:09:20;101378.00;;;13.15;77.07
66945;BME280;53853;51.982;5.928;2023-05-15T05:11:50;101374.94;;;13.10;77.08
66945;BME280;53853;51.982;5.928;2023-05-15T05:14:23;101379.44;;;13.10;76.75
66945;BME280;53853;51.982;5.928;2023-05-15T05:16:52;101377.22;;;13.05;76.55
66945;BME280;53853;51.982;5.928;2023-05-15T05:19:22;101375.56;;;13.04;77.07
66945;BME280;53853;51.982;5.928;2023-05-15T05:21:54;101375.00;;;13.00;76.52
66945;BME280;53853;51.982;5.928;2023-05-15T05:24:24;101378.66;;;12.81;76.57
66945;BME280;53853;51.982;5.928;2023-05-15T05:26:54;101377.44;;;12.76;76.99
66945;BME280;53853;51.982;5.928;2023-05-15T05:29:27;101380.56;;;12.71;77.32
66945;BME280;53853;51.982;5.928;2023-05-15T05:31:58;101389.72;;;12.68;77.70
66945;BME280;53853;51.982;5.928;2023-05-15T05:34:27;101382.00;;;12.65;77.36
66945;BME280;53853;51.982;5.928;2023-05-15T05:36:57;101381.59;;;12.60;77.40
66945;BME280;53853;51.982;5.928;2023-05-15T05:39:27;101380.34;;;12.64;77.45
66945;BME280;53853;51.982;5.928;2023-05-15T05:41:57;101388.50;;;12.63;77.75
66945;BME280;53853;51.982;5.928;2023-05-15T05:44:29;101393.34;;;12.77;76.89
66945;BME280;53853;51.982;5.928;2023-05-15T05:47:00;101384.78;;;12.74;76.66
66945;BME280;53853;51.982;5.928;2023-05-15T05:49:30;101391.19;;;12.63;76.78
66945;BME280;53853;51.982;5.928;2023-05-15T05:52:05;101392.25;;;12.70;77.14
66945;BME280;53853;51.982;5.928;2023-05-15T05:54:35;101390.38;;;12.80;76.74
66945;BME280;53853;51.982;5.928;2023-05-15T05:57:05;101393.19;;;12.79;76.42
66945;BME280;53853;51.982;5.928;2023-05-15T05:59:38;101394.56;;;12.83;76.53
66945;BME280;53853;51.982;5.928;2023-05-15T06:02:09;101393.66;;;12.92;75.71
66945;BME280;53853;51.982;5.928;2023-05-15T06:04:39;101387.69;;;12.98;75.17
66945;BME280;53853;51.982;5.928;2023-05-15T06:07:09;101390.16;;;12.92;75.04
66945;BME280;53853;51.982;5.928;2023-05-15T06:09:39;101387.16;;;12.95;75.05
66945;BME280;53853;51.982;5.928;2023-05-15T06:12:09;101385.47;;;12.94;75.36
66945;BME280;53853;51.982;5.928;2023-05-15T06:14:41;101389.38;;;12.99;74.78
66945;BME280;53853;51.982;5.928;2023-05-15T06:17:12;101391.97;;;13.09;74.79
66945;BME280;53853;51.982;5.928;2023-05-15T06:19:41;101383.72;;;13.20;74.67
66945;BME280;53853;51.982;5.928;2023-05-15T06:22:11;101382.22;;;13.36;73.74
66945;BME280;53853;51.982;5.928;2023-05-15T06:24:41;101389.84;;;13.49;73.68
66945;BME280;53853;51.982;5.928;2023-05-15T06:27:11;101385.38;;;13.57;73.10
66945;BME280;53853;51.982;5.928;2023-05-15T06:29:44;101385.94;;;13.61;71.86
66945;BME280;53853;51.982;5.928;2023-05-15T06:32:14;101382.63;;;13.67;71.15
66945;BME280;53853;51.982;5.928;2023-05-15T06:34:43;101385.34;;;13.75;71.25
66945;BME280;53853;51.982;5.928;2023-05-15T06:37:13;101376.69;;;13.82;70.59
66945;BME280;53853;51.982;5.928;2023-05-15T06:39:43;101372.53;;;13.87;71.18
66945;BME280;53853;51.982;5.928;2023-05-15T06:42:13;101369.72;;;13.97;71.73
66945;BME280;53853;51.982;5.928;2023-05-15T06:44:45;101372.47;;;14.05;72.22
66945;BME280;53853;51.982;5.928;2023-05-15T06:47:15;101374.34;;;14.13;72.55
66945;BME280;53853;51.982;5.928;2023-05-15T06:49:45;101368.16;;;14.21;72.48
66945;BME280;53853;51.982;5.928;2023-05-15T06:52:15;101378.97;;;14.29;72.11
66945;BME280;53853;51.982;5.928;2023-05-15T06:54:45;101374.44;;;14.38;71.91
66945;BME280;53853;51.982;5.928;2023-05-15T06:57:14;101357.06;;;14.42;71.61
66945;BME280;53853;51.982;5.928;2023-05-15T06:59:47;101363.09;;;14.44;70.42
66945;BME280;53853;51.982;5.928;2023-05-15T07:02:17;101373.66;;;14.45;70.27
66945;BME280;53853;51.982;5.928;2023-05-15T07:04:46;101379.84;;;14.46;70.39
66945;BME280;53853;51.982;5.928;2023-05-15T07:07:16;101378.03;;;14.46;69.66
66945;BME280;53853;51.982;5.928;2023-05-15T07:09:46;101378.34;;;14.43;68.43
66945;BME280;53853;51.982;5.928;2023-05-15T07:12:16;101375.66;;;14.43;69.08
66945;BME280;53853;51.982;5.928;2023-05-15T07:14:49;101375.66;;;14.43;68.14
66945;BME280;53853;51.982;5.928;2023-05-15T07:17:18;101387.06;;;14.45;68.81
66945;BME280;53853;51.982;5.928;2023-05-15T07:19:48;101386.41;;;14.52;69.14
66945;BME280;53853;51.982;5.928;2023-05-15T07:22:18;101378.72;;;14.57;68.74
66945;BME280;53853;51.982;5.928;2023-05-15T07:24:48;101374.75;;;14.61;68.54
66945;BME280;53853;51.982;5.928;2023-05-15T07:27:17;101374.91;;;14.67;67.87
66945;BME280;53853;51.982;5.928;2023-05-15T07:29:50;101365.34;;;14.73;66.67
66945;BME280;53853;51.982;5.928;2023-05-15T07:32:20;101369.72;;;14.74;65.79
66945;BME280;53853;51.982;5.928;2023-05-15T07:34:49;101371.09;;;14.78;66.33
66945;BME280;53853;51.982;5.928;2023-05-15T07:37:19;101368.91;;;14.90;67.21
66945;BME280;53853;51.982;5.928;2023-05-15T07:39:49;101370.94;;;15.04;67.45
66945;BME280;53853;51.982;5.928;2023-05-15T07:42:19;101364.59;;;15.14;65.70
66945;BME280;53853;51.982;5.928;2023-05-15T07:44:51;101371.97;;;15.20;62.76
66945;BME280;53853;51.982;5.928;2023-05-15T07:47:21;101371.47;;;15.25;63.78
66945;BME280;53853;51.982;5.928;2023-05-15T07:49:51;101370.47;;;15.34;62.94
66945;BME280;53853;51.982;5.928;2023-05-15T07:52:21;101369.13;;;15.38;62.89
66945;BME280;53853;51.982;5.928;2023-05-15T07:54:50;101364.78;;;15.37;62.94
66945;BME280;53853;51.982;5.928;2023-05-15T07:57:20;101367.78;;;15.42;63.81
66945;BME280;53853;51.982;5.928;2023-05-15T07:59:53;101362.06;;;15.45;63.86
66945;BME280;53853;51.982;5.928;2023-05-15T08:02:23;101365.09;;;15.50;64.29
66945;BME280;53853;51.982;5.928;2023-05-15T08:04:53;101372.97;;;15.52;64.72
66945;BME280;53853;51.982;5.928;2023-05-15T08:07:23;101366.09;;;15.57;65.40
66945;BME280;53853;51.982;5.928;2023-05-15T08:09:54;101368.78;;;15.66;64.63
66945;BME280;53853;51.982;5.928;2023-05-15T08:12:24;101359.16;;;15.71;64.08
66945;BME280;53853;51.982;5.928;2023-05-15T08:14:57;101361.91;;;15.80;64.59
66945;BME280;53853;51.982;5.928;2023-05-15T08:17:27;101358.16;;;15.89;64.06
66945;BME280;53853;51.982;5.928;2023-05-15T08:19:57;101360.47;;;16.00;63.93
66945;BME280;53853;51.982;5.928;2023-05-15T08:22:26;101357.59;;;16.10;63.81
66945;BME280;53853;51.982;5.928;2023-05-15T08:24:57;101355.88;;;16.17;63.22
66945;BME280;53853;51.982;5.928;2023-05-15T08:27:29;101352.97;;;16.27;63.52
66945;BME280;53853;51.982;5.928;2023-05-15T08:30:02;101350.75;;;16.39;64.54
66945;BME280;53853;51.982;5.928;2023-05-15T08:32:32;101352.41;;;16.48;62.30
66945;BME280;53853;51.982;5.928;2023-05-15T08:35:02;101351.31;;;16.57;61.38
66945;BME280;53853;51.982;5.928;2023-05-15T08:37:32;101355.63;;;16.66;61.43
66945;BME280;53853;51.982;5.928;2023-05-15T08:40:02;101355.78;;;16.73;62.16
66945;BME280;53853;51.982;5.928;2023-05-15T08:42:43;101355.41;;;16.76;58.59
66945;BME280;53853;51.982;5.928;2023-05-15T08:45:16;101355.03;;;16.79;58.88
66945;BME280;53853;51.982;5.928;2023-05-15T08:47:47;101354.22;;;16.79;59.46
66945;BME280;53853;51.982;5.928;2023-05-15T08:50:17;101347.28;;;16.84;60.08
66945;BME280;53853;51.982;5.928;2023-05-15T08:52:47;101342.88;;;16.92;60.92
66945;BME280;53853;51.982;5.928;2023-05-15T08:55:17;101344.97;;;17.05;59.02
66945;BME280;53853;51.982;5.928;2023-05-15T08:57:50;101341.75;;;17.09;58.36
66945;BME280;53853;51.982;5.928;2023-05-15T09:00:23;101335.53;;;17.09;58.64
66945;BME280;53853;51.982;5.928;2023-05-15T09:02:53;101332.13;;;17.15;59.23
66945;BME280;53853;51.982;5.928;2023-05-15T09:05:23;101333.06;;;17.22;56.88
66945;BME280;53853;51.982;5.928;2023-05-15T09:07:54;101334.38;;;17.26;56.90
66945;BME280;53853;51.982;5.928;2023-05-15T09:10:25;101332.78;;;17.32;57.50
66945;BME280;53853;51.982;5.928;2023-05-15T09:12:55;101332.44;;;17.35;57.75
66945;BME280;53853;51.982;5.928;2023-05-15T09:15:29;101332.94;;;17.38;58.39
66945;BME280;53853;51.982;5.928;2023-05-15T09:18:00;101334.53;;;17.48;59.44
66945;BME280;53853;51.982;5.928;2023-05-15T09:20:32;101332.75;;;17.55;58.94
66945;BME280;53853;51.982;5.928;2023-05-15T09:23:03;101323.56;;;17.64;58.59
66945;BME280;53853;51.982;5.928;2023-05-15T09:25:38;101330.19;;;17.77;58.13
66945;BME280;53853;51.982;5.928;2023-05-15T09:28:09;101333.97;;;17.82;57.16
66945;BME280;53853;51.982;5.928;2023-05-15T09:30:42;101324.16;;;17.89;58.47
66945;BME280;53853;51.982;5.928;2023-05-15T09:33:12;101332.16;;;17.98;55.77
66945;BME280;53853;51.982;5.928;2023-05-15T09:35:45;101327.09;;;18.09;57.92
66945;BME280;53853;51.982;5.928;2023-05-15T09:38:15;101324.59;;;18.23;58.08
66945;BME280;53853;51.982;5.928;2023-05-15T09:40:45;101316.47;;;18.38;56.55
66945;BME280;53853;51.982;5.928;2023-05-15T09:43:15;101324.72;;;18.51;53.81
66945;BME280;53853;51.982;5.928;2023-05-15T09:45:49;101323.00;;;18.65;54.51
66945;BME280;53853;51.982;5.928;2023-05-15T09:48:19;101323.97;;;18.79;54.48
66945;BME280;53853;51.982;5.928;2023-05-15T09:50:49;101321.72;;;18.82;51.51
66945;BME280;53853;51.982;5.928;2023-05-15T09:53:20;101325.59;;;18.95;52.97
66945;BME280;53853;51.982;5.928;2023-05-15T09:55:52;101331.97;;;19.09;52.63
66945;BME280;53853;51.982;5.928;2023-05-15T09:58:21;101326.25;;;19.18;52.71
66945;BME280;53853;51.982;5.928;2023-05-15T10:00:54;101329.66;;;19.27;49.88
66945;BME280;53853;51.982;5.928;2023-05-15T10:03:28;101328.41;;;19.30;51.76
66945;BME280;53853;51.982;5.928;2023-05-15T10:05:59;101324.53;;;19.39;50.13
66945;BME280;53853;51.982;5.928;2023-05-15T10:08:30;101324.91;;;19.36;50.40
66945;BME280;53853;51.982;5.928;2023-05-15T10:11:02;101332.00;;;19.37;50.14
66945;BME280;53853;51.982;5.928;2023-05-15T10:13:34;101328.41;;;19.30;49.34
66945;BME280;53853;51.982;5.928;2023-05-15T10:16:07;101336.84;;;19.20;48.51
66945;BME280;53853;51.982;5.928;2023-05-15T10:18:38;101335.97;;;19.13;48.90
66945;BME280;53853;51.982;5.928;2023-05-15T10:21:09;101330.19;;;19.16;48.11
66945;BME280;53853;51.982;5.928;2023-05-15T10:23:40;101334.72;;;19.15;48.85
66945;BME280;53853;51.982;5.928;2023-05-15T10:26:15;101339.34;;;19.22;48.81
66945;BME280;53853;51.982;5.928;2023-05-15T10:28:48;101343.75;;;19.23;47.45
66945;BME280;53853;51.982;5.928;2023-05-15T10:31:21;101347.47;;;19.22;48.49
66945;BME280;53853;51.982;5.928;2023-05-15T10:33:52;101345.00;;;19.27;47.09
66945;BME280;53853;51.982;5.928;2023-05-15T10:36:24;101345.72;;;19.35;47.14
66945;BME280;53853;51.982;5.928;2023-05-15T10:38:54;101344.97;;;19.48;47.68
66945;BME280;53853;51.982;5.928;2023-05-15T10:41:24;101338.63;;;19.63;47.96
66945;BME280;53853;51.982;5.928;2023-05-15T10:43:57;101348.53;;;19.77;47.88
66945;BME280;53853;51.982;5.928;2023-05-15T10:46:30;101344.44;;;19.88;48.09
66945;BME280;53853;51.982;5.928;2023-05-15T10:49:01;101339.69;;;19.97;48.50
66945;BME280;53853;51.982;5.928;2023-05-15T10:51:32;101337.63;;;19.99;46.94
66945;BME280;53853;51.982;5.928;2023-05-15T10:54:03;101341.19;;;20.06;47.34
66945;BME280;53853;51.982;5.928;2023-05-15T10:56:36;101337.47;;;20.07;45.38
66945;BME280;53853;51.982;5.928;2023-05-15T10:59:07;101342.44;;;20.03;42.14
66945;BME280;53853;51.982;5.928;2023-05-15T11:01:40;101343.28;;;20.04;42.39
66945;BME280;53853;51.982;5.928;2023-05-15T11:04:12;101341.22;;;20.13;43.36
66945;BME280;53853;51.982;5.928;2023-05-15T11:06:43;101341.88;;;20.15;44.39
66945;BME280;53853;51.982;5.928;2023-05-15T11:09:35;101335.25;;;20.24;44.11
66945;BME280;53853;51.982;5.928;2023-05-15T11:12:06;101329.25;;;20.29;43.73
66945;BME280;53853;51.982;5.928;2023-05-15T11:14:39;101330.91;;;20.30;43.29
66945;BME280;53853;51.982;5.928;2023-05-15T11:17:12;101339.44;;;20.33;43.83
66945;BME280;53853;51.982;5.928;2023-05-15T11:19:57;101346.94;;;20.38;44.43
66945;BME280;53853;51.982;5.928;2023-05-15T11:22:30;101348.00;;;20.37;44.98
66945;BME280;53853;51.982;5.928;2023-05-15T11:25:03;101339.44;;;20.33;44.69
66945;BME280;53853;51.982;5.928;2023-05-15T11:27:38;101337.97;;;20.24;44.55
66945;BME280;53853;51.982;5.928;2023-05-15T11:30:11;101333.16;;;20.19;45.99
66945;BME280;53853;51.982;5.928;2023-05-15T11:32:58;101331.94;;;20.29;47.54
66945;BME280;53853;51.982;5.928;2023-05-15T11:35:29;101332.78;;;20.36;47.26
66945;BME280;53853;51.982;5.928;2023-05-15T11:38:02;101329.03;;;20.30;44.85
66945;BME280;53853;51.982;5.928;2023-05-15T11:40:43;101335.22;;;20.17;44.21
66945;BME280;53853;51.982;5.928;2023-05-15T11:43:18;101336.19;;;20.03;45.35
66945;BME280;53853;51.982;5.928;2023-05-15T11:45:52;101335.00;;;19.77;46.16
66945;BME280;53853;51.982;5.928;2023-05-15T11:48:31;101326.34;;;19.60;46.21
66945;BME280;53853;51.982;5.928;2023-05-15T11:51:02;101336.75;;;19.63;46.51
66945;BME280;53853;51.982;5.928;2023-05-15T11:53:33;101332.34;;;19.55;47.18
66945;BME280;53853;51.982;5.928;2023-05-15T11:56:04;101326.69;;;19.50;48.02
66945;BME280;53853;51.982;5.928;2023-05-15T11:58:34;101331.22;;;19.43;47.84
66945;BME280;53853;51.982;5.928;2023-05-15T12:01:03;101330.16;;;19.44;48.48
66945;BME280;53853;51.982;5.928;2023-05-15T12:03:36;101326.44;;;19.45;49.73
66945;BME280;53853;51.982;5.928;2023-05-15T12:06:06;101327.03;;;19.41;49.99
66945;BME280;53853;51.982;5.928;2023-05-15T12:08:37;101324.56;;;19.46;50.71
66945;BME280;53853;51.982;5.928;2023-05-15T12:11:08;101319.47;;;19.58;51.02
66945;BME280;53853;51.982;5.928;2023-05-15T12:13:38;101323.03;;;19.65;50.83
66945;BME280;53853;51.982;5.928;2023-05-15T12:16:07;101333.84;;;19.65;50.91
66945;BME280;53853;51.982;5.928;2023-05-15T12:18:40;101331.16;;;19.65;51.55
66945;BME280;53853;51.982;5.928;2023-05-15T12:21:10;101329.69;;;19.62;51.87
66945;BME280;53853;51.982;5.928;2023-05-15T12:23:39;101327.59;;;19.58;51.68
66945;BME280;53853;51.982;5.928;2023-05-15T12:26:10;101326.25;;;19.47;51.09
66945;BME280;53853;51.982;5.928;2023-05-15T12:28:40;101333.81;;;19.30;51.84
66945;BME280;53853;51.982;5.928;2023-05-15T12:31:11;101330.28;;;19.29;52.47
66945;BME280;53853;51.982;5.928;2023-05-15T12:33:45;101330.75;;;19.40;52.29
66945;BME280;53853;51.982;5.928;2023-05-15T12:36:20;101329.38;;;19.50;52.89
66945;BME280;53853;51.982;5.928;2023-05-15T12:38:50;101332.59;;;19.61;52.95
66945;BME280;53853;51.982;5.928;2023-05-15T12:41:20;101341.56;;;19.68;52.31
66945;BME280;53853;51.982;5.928;2023-05-15T12:43:50;101334.75;;;19.72;51.71
66945;BME280;53853;51.982;5.928;2023-05-15T12:46:22;101330.16;;;19.72;51.28
66945;BME280;53853;51.982;5.928;2023-05-15T12:48:57;101331.66;;;19.75;51.86
66945;BME280;53853;51.982;5.928;2023-05-15T12:51:27;101328.56;;;19.78;51.78
66945;BME280;53853;51.982;5.928;2023-05-15T12:53:56;101324.94;;;19.71;52.01
66945;BME280;53853;51.982;5.928;2023-05-15T12:56:29;101323.72;;;19.73;51.77
66945;BME280;53853;51.982;5.928;2023-05-15T12:58:58;101321.84;;;19.74;51.57
66945;BME280;53853;51.982;5.928;2023-05-15T13:01:29;101324.56;;;19.74;51.60
66945;BME280;53853;51.982;5.928;2023-05-15T13:04:01;101326.44;;;19.73;52.67
66945;BME280;53853;51.982;5.928;2023-05-15T13:06:32;101323.38;;;19.77;53.15
66945;BME280;53853;51.982;5.928;2023-05-15T13:09:02;101325.28;;;19.83;52.90
66945;BME280;53853;51.982;5.928;2023-05-15T13:11:33;101328.44;;;19.93;51.78
66945;BME280;53853;51.982;5.928;2023-05-15T13:14:08;101320.34;;;20.00;51.73